Time;durP1;ratioP1;P1;durP2;ratioP2;P2;SDS_P1;SDS_P2;PMS_P1;PMS_P2;Temp;Humidity;BMP_temperature;BMP_pressure;BME280_temperature;BME280_humidity;BME280_pressure;Samples;Min_cycle;Max_cycle;Signal;HPM_P1;HPM_P2
2022/03/23 05:51:06;;;;;;;46.60;13.02;;;;;;;;;;5218184;22;20112;-61
2022/03/23 05:53:32;;;;;;;38.85;11.93;;;;;;;;;;4991604;28;20122;-60
2022/03/23 05:55:58;;;;;;;36.92;11.05;;;;;;;;;;4991648;28;20393;-60
2022/03/23 05:58:25;;;;;;;33.25;10.63;;;;;;;;;;4991603;28;20077;-58
2022/03/23 06:00:51;;;;;;;37.47;10.60;;;;;;;;;;4991385;28;20026;-61
2022/03/23 06:03:18;;;;;;;38.63;10.40;;;;;;;;;;4991857;28;20375;-60
2022/03/23 06:05:44;;;;;;;25.30;10.13;;;;;;;;;;4991676;28;20034;-60
2022/03/23 06:08:10;;;;;;;26.55;9.63;;;;;;;;;;4991485;28;20084;-59
2022/03/23 06:10:37;;;;;;;29.75;9.45;;;;;;;;;;4991361;28;20080;-60
2022/03/23 06:13:03;;;;;;;31.92;10.05;;;;;;;;;;4991931;28;20482;-60
2022/03/23 06:15:29;;;;;;;30.33;11.20;;;;;;;;;;4991348;28;20544;-59
2022/03/23 06:17:55;;;;;;;37.38;12.65;;;;;;;;;;4973709;28;20042;-60
2022/03/23 06:20:21;;;;;;;32.55;13.45;;;;;;;;;;4991518;28;20482;-60
2022/03/23 06:22:48;;;;;;;40.88;13.38;;;;;;;;;;4991094;28;20050;-60
2022/03/23 06:25:14;;;;;;;33.97;12.40;;;;;;;;;;4991355;28;20482;-59
2022/03/23 06:27:40;;;;;;;34.22;11.88;;;;;;;;;;4991130;28;20364;-61
2022/03/23 06:30:06;;;;;;;33.80;11.88;;;;;;;;;;4991139;28;20497;-60
2022/03/23 06:32:33;;;;;;;37.28;11.57;;;;;;;;;;4991334;28;20023;-60
2022/03/23 06:35:00;;;;;;;34.13;12.25;;;;;;;;;;4991097;28;20026;-61
2022/03/23 06:37:27;;;;;;;36.08;11.57;;;;;;;;;;4990837;28;20745;-60
2022/03/23 06:39:53;;;;;;;29.40;12.02;;;;;;;;;;4991314;28;20443;-60
2022/03/23 06:42:19;;;;;;;34.15;13.75;;;;;;;;;;4990985;28;20057;-61
2022/03/23 06:44:46;;;;;;;32.53;12.30;;;;;;;;;;4990829;28;20077;-60
2022/03/23 06:47:12;;;;;;;27.38;10.65;;;;;;;;;;4990996;28;20163;-61
2022/03/23 06:49:38;;;;;;;31.55;10.38;;;;;;;;;;4990975;28;20026;-62
2022/03/23 06:52:05;;;;;;;34.65;11.43;;;;;;;;;;4989931;28;20101;-61
2022/03/23 06:54:31;;;;;;;27.08;9.85;;;;;;;;;;4991548;28;20109;-59
2022/03/23 06:56:57;;;;;;;26.90;9.40;;;;;;;;;;4990752;28;20033;-59
2022/03/23 06:59:23;;;;;;;37.97;14.27;;;;;;;;;;4990811;28;20511;-59
2022/03/23 07:01:49;;;;;;;44.03;14.23;;;;;;;;;;4990897;28;20109;-59
2022/03/23 07:04:15;;;;;;;40.90;15.55;;;;;;;;;;4990644;28;20468;-60
2022/03/23 07:06:41;;;;;;;42.83;16.00;;;;;;;;;;4991089;28;20030;-59
2022/03/23 07:11:52;;;;;;;39.13;16.30;;;;;;;;;;4990690;28;20104;-60
2022/03/23 07:14:18;;;;;;;46.80;16.02;;;;;;;;;;4992742;28;20431;-61
2022/03/23 07:16:44;;;;;;;41.42;15.32;;;;;;;;;;4994621;28;20030;-62
2022/03/23 07:19:13;;;;;;;42.17;16.73;;;;;;;;;;4994512;28;20109;-60
2022/03/23 07:21:39;;;;;;;48.95;17.05;;;;;;;;;;4994549;28;20035;-59
2022/03/23 07:24:05;;;;;;;42.15;16.02;;;;;;;;;;4994082;28;20113;-60
2022/03/23 07:26:31;;;;;;;189.73;90.97;;;;;;;;;;4993674;28;20101;-60
2022/03/23 07:28:57;;;;;;;116.65;53.45;;;;;;;;;;4992812;28;20033;-60
2022/03/23 07:31:23;;;;;;;56.67;22.55;;;;;;;;;;4992814;28;20038;-61
2022/03/23 07:33:50;;;;;;;46.15;19.58;;;;;;;;;;4994338;28;20018;-60
2022/03/23 07:36:16;;;;;;;48.63;20.40;;;;;;;;;;4993262;28;20130;-60
2022/03/23 07:38:42;;;;;;;54.92;20.17;;;;;;;;;;4992392;28;20459;-60
2022/03/23 07:41:08;;;;;;;55.45;19.00;;;;;;;;;;4992736;28;20140;-60
2022/03/23 07:43:34;;;;;;;43.25;16.48;;;;;;;;;;4992642;28;20398;-60
2022/03/23 07:46:00;;;;;;;43.38;15.40;;;;;;;;;;4992577;28;20049;-60
2022/03/23 07:48:26;;;;;;;33.42;11.40;;;;;;;;;;4992782;28;20030;-59
2022/03/23 07:50:52;;;;;;;37.83;11.73;;;;;;;;;;4991241;28;20051;-60
2022/03/23 07:53:18;;;;;;;35.55;12.63;;;;;;;;;;4984446;28;20166;-61
2022/03/23 07:55:45;;;;;;;30.52;11.88;;;;;;;;;;4986598;28;20081;-61
2022/03/23 07:58:11;;;;;;;32.78;11.65;;;;;;;;;;4980803;28;20759;-60
2022/03/23 08:00:38;;;;;;;29.55;11.55;;;;;;;;;;4984363;28;20467;-60
2022/03/23 08:03:05;;;;;;;28.50;11.73;;;;;;;;;;4982622;28;20594;-59
2022/03/23 08:05:32;;;;;;;26.95;12.88;;;;;;;;;;4982261;28;20031;-59
2022/03/23 08:07:58;;;;;;;37.25;14.55;;;;;;;;;;4983447;28;20084;-59
2022/03/23 08:10:25;;;;;;;47.50;21.83;;;;;;;;;;4984137;28;20043;-60
2022/03/23 08:12:51;;;;;;;32.67;14.93;;;;;;;;;;4982325;28;20102;-61
2022/03/23 08:15:17;;;;;;;35.22;13.00;;;;;;;;;;4983350;28;20038;-61
2022/03/23 08:17:43;;;;;;;29.23;11.90;;;;;;;;;;4983666;28;20078;-61
2022/03/23 08:23:15;;;;;;;24.90;10.73;;;;;;;;;;4932182;29;20042;-62
2022/03/23 08:25:42;;;;;;;26.80;10.35;;;;;;;;;;4932799;29;20039;-61
2022/03/23 08:28:09;;;;;;;29.83;12.90;;;;;;;;;;4933154;29;20032;-59
2022/03/23 08:30:35;;;;;;;26.08;9.98;;;;;;;;;;4933027;29;20039;-61
2022/03/23 08:33:02;;;;;;;30.50;9.80;;;;;;;;;;4932847;29;20107;-60
2022/03/23 08:35:29;;;;;;;28.05;10.82;;;;;;;;;;4932812;29;20042;-59
2022/03/23 08:37:55;;;;;;;31.58;11.20;;;;;;;;;;4921988;29;20044;-58
2022/03/23 08:40:21;;;;;;;26.58;8.10;;;;;;;;;;4923165;29;20681;-62
2022/03/23 08:42:47;;;;;;;20.55;7.63;;;;;;;;;;4923816;29;20083;-63
2022/03/23 08:45:15;;;;;;;16.13;7.28;;;;;;;;;;4925386;29;20051;-58
2022/03/23 08:47:41;;;;;;;31.13;9.98;;;;;;;;;;4922945;29;20059;-62
2022/03/23 08:50:08;;;;;;;21.42;8.10;;;;;;;;;;4921167;29;20072;-60
2022/03/23 08:52:34;;;;;;;24.73;9.57;;;;;;;;;;4922360;29;20050;-59
2022/03/23 08:55:02;;;;;;;28.95;9.50;;;;;;;;;;4941005;29;20547;-59
2022/03/23 08:57:28;;;;;;;23.27;8.93;;;;;;;;;;4936392;29;20036;-60
2022/03/23 08:59:54;;;;;;;34.65;9.60;;;;;;;;;;4983611;28;20038;-61
2022/03/23 09:02:20;;;;;;;27.17;9.52;;;;;;;;;;4987105;28;20029;-59
2022/03/23 09:04:46;;;;;;;35.50;10.35;;;;;;;;;;4983499;28;20038;-59
2022/03/23 09:07:12;;;;;;;24.75;10.23;;;;;;;;;;4985481;28;20045;-60
2022/03/23 09:09:38;;;;;;;35.95;11.23;;;;;;;;;;4984447;28;20387;-61
2022/03/23 09:12:05;;;;;;;35.17;10.80;;;;;;;;;;4984593;28;20094;-60
2022/03/23 09:14:31;;;;;;;38.17;10.05;;;;;;;;;;4984369;28;20505;-60
2022/03/23 09:16:57;;;;;;;42.83;10.73;;;;;;;;;;4983832;28;20372;-60
2022/03/23 09:19:23;;;;;;;44.53;10.60;;;;;;;;;;4983266;28;20038;-61
2022/03/23 09:21:50;;;;;;;32.70;10.02;;;;;;;;;;4983205;28;20109;-60
2022/03/23 09:24:19;;;;;;;28.88;9.80;;;;;;;;;;4985586;28;20052;-58
2022/03/23 09:26:45;;;;;;;30.65;9.48;;;;;;;;;;4982553;28;20478;-62
2022/03/23 09:29:12;;;;;;;33.53;10.20;;;;;;;;;;4984308;28;20470;-61
2022/03/23 09:31:38;;;;;;;24.45;9.75;;;;;;;;;;4985175;28;20038;-59
2022/03/23 09:34:05;;;;;;;30.00;9.77;;;;;;;;;;5007174;28;20484;-60
2022/03/23 09:39:17;;;;;;;27.02;9.88;;;;;;;;;;5000006;28;20046;-61
2022/03/23 09:41:45;;;;;;;25.60;10.13;;;;;;;;;;5006127;28;20026;-59
2022/03/23 09:44:11;;;;;;;24.58;10.00;;;;;;;;;;4994721;28;20023;-59
2022/03/23 09:46:37;;;;;;;42.22;19.80;;;;;;;;;;5005671;28;20019;-59
2022/03/23 09:49:05;;;;;;;27.98;11.80;;;;;;;;;;4991180;28;20475;-58
2022/03/23 09:51:32;;;;;;;21.95;11.25;;;;;;;;;;4997561;28;20057;-61
2022/03/23 09:53:58;;;;;;;26.08;10.30;;;;;;;;;;4993564;28;20030;-58
2022/03/23 09:56:24;;;;;;;30.35;9.57;;;;;;;;;;4996926;28;20041;-59
2022/03/23 09:58:51;;;;;;;30.27;9.80;;;;;;;;;;5003166;28;20433;-59
2022/03/23 10:01:43;;;;;;;26.73;10.63;;;;;;;;;;5002368;28;20469;-61
2022/03/23 10:04:18;;;;;;;20.83;8.68;;;;;;;;;;4994022;28;20377;-60
2022/03/23 10:07:02;;;;;;;27.92;11.20;;;;;;;;;;5004329;28;20058;-59
2022/03/23 10:09:47;;;;;;;25.00;10.90;;;;;;;;;;5003463;28;20026;-61
2022/03/23 10:12:22;;;;;;;26.35;10.00;;;;;;;;;;4988604;28;20057;-60
2022/03/23 10:15:07;;;;;;;24.33;10.32;;;;;;;;;;5003423;28;20041;-60
2022/03/23 10:17:42;;;;;;;25.77;9.40;;;;;;;;;;5003944;28;20033;-61
2022/03/23 10:20:11;;;;;;;30.05;12.50;;;;;;;;;;4994092;28;20030;-60
2022/03/23 10:22:44;;;;;;;25.92;9.98;;;;;;;;;;4998182;28;20106;-59
2022/03/23 10:25:11;;;;;;;21.73;8.57;;;;;;;;;;4983170;28;20033;-60
2022/03/23 10:27:38;;;;;;;24.55;8.27;;;;;;;;;;5004545;28;20048;-61
2022/03/23 10:30:04;;;;;;;22.38;9.45;;;;;;;;;;4994183;28;20034;-59
2022/03/23 10:32:37;;;;;;;23.98;8.70;;;;;;;;;;4996756;28;20493;-60
2022/03/23 10:35:07;;;;;;;21.25;8.10;;;;;;;;;;5000531;28;20469;-60
2022/03/23 10:37:34;;;;;;;19.48;7.65;;;;;;;;;;4996544;28;20088;-59
2022/03/23 10:40:01;;;;;;;18.20;7.20;;;;;;;;;;5006498;28;20413;-59
2022/03/23 10:42:29;;;;;;;19.27;7.32;;;;;;;;;;4994542;28;20409;-60
2022/03/23 10:45:09;;;;;;;16.83;6.85;;;;;;;;;;5001746;28;20029;-60
2022/03/23 10:47:35;;;;;;;26.05;7.32;;;;;;;;;;4999273;28;20036;-60
2022/03/23 10:50:10;;;;;;;20.83;6.55;;;;;;;;;;4997381;28;20029;-59
2022/03/23 10:52:47;;;;;;;20.80;8.15;;;;;;;;;;5007899;28;20090;-60
2022/03/23 10:55:13;;;;;;;20.17;7.15;;;;;;;;;;4986981;28;20366;-59
2022/03/23 10:57:42;;;;;;;22.02;7.05;;;;;;;;;;4998375;28;20431;-60
2022/03/23 11:00:09;;;;;;;19.08;7.10;;;;;;;;;;5001153;28;20029;-60
2022/03/23 11:02:47;;;;;;;16.38;6.78;;;;;;;;;;5008404;28;20030;-59
2022/03/23 11:05:32;;;;;;;21.67;7.18;;;;;;;;;;5004805;28;20477;-60
2022/03/23 11:08:08;;;;;;;16.38;6.32;;;;;;;;;;4997714;28;20037;-60
2022/03/23 11:16:38;;;;;;;16.30;6.60;;;;;;;;;;4985786;28;20044;-60
2022/03/23 11:19:13;;;;;;;26.80;7.35;;;;;;;;;;5004582;28;20485;-61
2022/03/23 11:21:58;;;;;;;14.98;5.97;;;;;;;;;;5003244;28;20116;-59
2022/03/23 11:24:24;;;;;;;19.77;7.35;;;;;;;;;;4995864;28;20034;-60
2022/03/23 11:26:51;;;;;;;17.95;7.53;;;;;;;;;;5006164;28;20108;-59
2022/03/23 11:29:17;;;;;;;19.67;7.80;;;;;;;;;;5004884;28;20029;-61
2022/03/23 11:31:45;;;;;;;19.73;7.75;;;;;;;;;;4998954;28;20078;-59
2022/03/23 11:34:13;;;;;;;27.50;7.65;;;;;;;;;;5010374;28;20426;-59
2022/03/23 11:36:39;;;;;;;16.23;7.18;;;;;;;;;;4989303;28;20023;-60
2022/03/23 11:39:06;;;;;;;20.17;7.75;;;;;;;;;;4983945;28;20022;-59
2022/03/23 11:41:35;;;;;;;19.23;7.90;;;;;;;;;;5006585;28;20437;-59
2022/03/23 11:44:01;;;;;;;27.83;8.55;;;;;;;;;;4996737;28;20467;-60
2022/03/23 11:46:28;;;;;;;29.40;9.52;;;;;;;;;;4990744;28;20030;-60
2022/03/23 11:49:12;;;;;;;16.55;7.80;;;;;;;;;;5005492;28;20475;-60
2022/03/23 11:51:44;;;;;;;26.00;8.65;;;;;;;;;;5007103;28;20045;-62
2022/03/23 11:54:22;;;;;;;27.40;8.65;;;;;;;;;;4995166;28;20034;-60
2022/03/23 11:56:58;;;;;;;21.60;8.65;;;;;;;;;;4993271;28;20061;-60
2022/03/23 11:59:28;;;;;;;25.90;10.20;;;;;;;;;;4991660;28;20026;-60
2022/03/23 12:01:54;;;;;;;23.40;7.85;;;;;;;;;;4991650;28;20066;-61
2022/03/23 12:04:23;;;;;;;20.83;8.32;;;;;;;;;;4994493;28;20033;-60
2022/03/23 12:07:03;;;;;;;22.27;8.90;;;;;;;;;;5002724;28;20031;-60
2022/03/23 12:09:33;;;;;;;22.90;9.55;;;;;;;;;;5005652;28;20030;-61
2022/03/23 12:11:59;;;;;;;20.33;7.78;;;;;;;;;;4996259;28;20043;-61
2022/03/23 12:14:36;;;;;;;17.65;7.45;;;;;;;;;;5007637;28;20077;-61
2022/03/23 12:17:02;;;;;;;21.20;7.95;;;;;;;;;;5001764;28;20526;-61
2022/03/23 12:19:32;;;;;;;18.85;8.48;;;;;;;;;;4999338;28;20022;-61
2022/03/23 12:22:07;;;;;;;27.65;8.80;;;;;;;;;;5008852;28;20022;-60
2022/03/23 12:24:35;;;;;;;22.23;8.98;;;;;;;;;;4997104;28;20024;-59
2022/03/23 12:27:08;;;;;;;23.20;7.90;;;;;;;;;;5003400;28;20037;-60
2022/03/23 12:29:36;;;;;;;20.10;7.45;;;;;;;;;;5005842;28;20036;-60
2022/03/23 12:32:08;;;;;;;21.67;7.95;;;;;;;;;;4995589;28;20039;-60
2022/03/23 12:34:35;;;;;;;16.92;7.70;;;;;;;;;;5006776;28;20109;-60
2022/03/23 12:37:15;;;;;;;21.33;7.90;;;;;;;;;;5001205;28;20028;-60
2022/03/23 12:39:45;;;;;;;26.65;8.63;;;;;;;;;;4998062;28;20022;-60
2022/03/23 12:42:17;;;;;;;19.88;7.80;;;;;;;;;;5007661;28;20402;-61
2022/03/23 12:44:43;;;;;;;23.25;7.93;;;;;;;;;;4998628;28;20104;-62
2022/03/23 12:47:12;;;;;;;18.23;7.50;;;;;;;;;;5001558;28;20065;-61
2022/03/23 12:58:08;;;;;;;18.67;5.68;;;;;;;;;;4973229;28;20045;-61
2022/03/23 13:00:38;;;;;;;12.52;5.47;;;;;;;;;;4972582;28;20495;-61
2022/03/23 13:03:04;;;;;;;19.02;6.22;;;;;;;;;;4972337;28;20372;-61
2022/03/23 13:05:34;;;;;;;12.00;4.93;;;;;;;;;;4972615;28;20113;-61
2022/03/23 13:08:00;;;;;;;20.83;5.20;;;;;;;;;;4972362;28;20026;-60
2022/03/23 13:10:27;;;;;;;18.10;6.03;;;;;;;;;;4971700;28;20112;-60
2022/03/23 13:13:08;;;;;;;15.05;5.10;;;;;;;;;;4972373;28;20035;-60
2022/03/23 13:15:35;;;;;;;11.27;4.03;;;;;;;;;;4972653;28;20034;-60
2022/03/23 13:18:01;;;;;;;9.93;4.30;;;;;;;;;;4972278;28;20113;-60
2022/03/23 13:20:31;;;;;;;17.90;5.43;;;;;;;;;;4972449;28;20042;-60
2022/03/23 13:22:57;;;;;;;15.32;4.40;;;;;;;;;;4977237;28;20023;-60
2022/03/23 13:25:23;;;;;;;17.02;5.45;;;;;;;;;;4991758;28;20038;-60
2022/03/23 13:27:51;;;;;;;17.05;6.10;;;;;;;;;;4991644;28;20515;-59
2022/03/23 13:30:23;;;;;;;17.15;5.88;;;;;;;;;;4991318;28;20019;-60
2022/03/23 13:32:50;;;;;;;14.90;5.15;;;;;;;;;;4991555;28;20042;-60
2022/03/23 13:35:20;;;;;;;14.52;4.30;;;;;;;;;;4991194;28;20529;-60
2022/03/23 13:37:55;;;;;;;11.88;4.38;;;;;;;;;;4973345;28;20042;-61
2022/03/23 13:40:24;;;;;;;10.73;3.72;;;;;;;;;;4991590;28;20037;-60
2022/03/23 13:45:36;;;;;;;14.10;4.50;;;;;;;;;;4991169;28;20045;-60
2022/03/23 13:48:07;;;;;;;11.93;5.03;;;;;;;;;;4991523;28;20027;-58
2022/03/23 13:50:33;;;;;;;8.38;3.92;;;;;;;;;;4990750;28;20073;-61
2022/03/23 13:52:59;;;;;;;10.93;4.30;;;;;;;;;;4991066;28;20031;-63
2022/03/23 13:55:25;;;;;;;16.85;4.43;;;;;;;;;;4973550;28;20106;-61
2022/03/23 13:57:51;;;;;;;9.00;3.70;;;;;;;;;;4991187;28;20418;-62
2022/03/23 14:00:28;;;;;;;14.95;4.13;;;;;;;;;;4991291;28;20474;-60
2022/03/23 14:02:54;;;;;;;8.70;3.90;;;;;;;;;;4991313;28;20109;-61
2022/03/23 14:05:21;;;;;;;8.38;3.47;;;;;;;;;;4990847;28;20125;-62
2022/03/23 14:07:51;;;;;;;14.25;3.95;;;;;;;;;;4991098;28;20136;-61
2022/03/23 14:10:17;;;;;;;10.43;4.22;;;;;;;;;;4991109;28;20034;-62
2022/03/23 14:12:48;;;;;;;16.08;4.55;;;;;;;;;;4991045;28;20206;-62
2022/03/23 14:15:14;;;;;;;9.45;4.15;;;;;;;;;;4991219;28;20033;-60
2022/03/23 14:17:42;;;;;;;12.15;4.18;;;;;;;;;;4990930;28;20068;-60
2022/03/23 14:20:08;;;;;;;12.57;3.85;;;;;;;;;;4990988;28;20025;-62
2022/03/23 14:22:35;;;;;;;9.73;3.72;;;;;;;;;;4990674;28;20034;-60
2022/03/23 14:25:03;;;;;;;14.98;3.92;;;;;;;;;;4990588;28;20030;-60
2022/03/23 14:27:29;;;;;;;8.50;3.33;;;;;;;;;;4991070;28;20030;-60
2022/03/23 14:30:07;;;;;;;11.63;3.78;;;;;;;;;;4990637;28;20026;-60
2022/03/23 14:32:35;;;;;;;15.32;5.30;;;;;;;;;;4991047;28;20038;-60
2022/03/23 14:35:02;;;;;;;9.05;3.47;;;;;;;;;;4990447;28;20022;-60
2022/03/23 14:37:41;;;;;;;10.05;3.40;;;;;;;;;;4990690;28;20030;-60
2022/03/23 14:40:27;;;;;;;8.15;3.45;;;;;;;;;;4990574;28;20045;-60
2022/03/23 14:42:54;;;;;;;11.55;3.55;;;;;;;;;;4991111;28;20027;-62
2022/03/23 14:45:41;;;;;;;10.60;4.05;;;;;;;;;;4991169;28;20057;-60
2022/03/23 14:48:15;;;;;;;6.80;3.10;;;;;;;;;;4990680;28;20061;-61
2022/03/23 14:50:41;;;;;;;10.93;3.58;;;;;;;;;;4990455;28;20042;-62
2022/03/23 14:53:09;;;;;;;16.27;4.50;;;;;;;;;;4990447;28;20375;-61
2022/03/23 14:55:37;;;;;;;14.45;3.83;;;;;;;;;;4990605;28;20015;-61
2022/03/23 14:58:03;;;;;;;8.60;3.85;;;;;;;;;;4990134;28;20022;-60
2022/03/23 15:00:29;;;;;;;10.32;4.07;;;;;;;;;;4990673;28;20089;-61
2022/03/23 15:02:55;;;;;;;11.05;4.10;;;;;;;;;;4991167;28;20058;-63
2022/03/23 15:13:46;;;;;;;11.38;3.80;;;;;;;;;;4911058;29;20088;-60
2022/03/23 15:16:13;;;;;;;10.68;4.13;;;;;;;;;;4911615;29;20035;-60
2022/03/23 15:18:40;;;;;;;12.70;5.60;;;;;;;;;;4911931;29;20033;-59
2022/03/23 15:21:06;;;;;;;11.27;4.13;;;;;;;;;;4911567;29;20039;-60
2022/03/23 15:23:32;;;;;;;17.98;5.18;;;;;;;;;;4911043;29;20591;-60
2022/03/23 15:25:59;;;;;;;12.73;5.25;;;;;;;;;;4911213;29;20044;-60
2022/03/23 15:28:25;;;;;;;13.27;5.22;;;;;;;;;;4911669;29;20055;-60
2022/03/23 15:30:51;;;;;;;10.48;4.70;;;;;;;;;;4910987;29;20028;-59
2022/03/23 15:33:19;;;;;;;16.23;5.63;;;;;;;;;;4911262;29;20036;-60
2022/03/23 15:35:46;;;;;;;15.90;5.40;;;;;;;;;;4914325;29;20031;-60
2022/03/23 15:38:12;;;;;;;14.02;5.30;;;;;;;;;;4914717;29;20414;-61
2022/03/23 15:40:38;;;;;;;15.45;5.90;;;;;;;;;;4914303;29;20040;-61
2022/03/23 15:43:04;;;;;;;16.52;6.95;;;;;;;;;;4914649;29;20091;-59
2022/03/23 15:45:31;;;;;;;19.23;7.88;;;;;;;;;;4965116;28;20555;-61
2022/03/23 15:47:57;;;;;;;17.33;5.82;;;;;;;;;;4974425;28;20039;-61
2022/03/23 15:50:23;;;;;;;16.95;6.72;;;;;;;;;;4974281;28;20030;-62
2022/03/23 15:52:49;;;;;;;11.48;4.45;;;;;;;;;;4982971;28;20046;-61
2022/03/23 15:55:16;;;;;;;12.43;5.68;;;;;;;;;;4984525;28;20050;-62
2022/03/23 15:57:42;;;;;;;15.63;7.40;;;;;;;;;;4982660;28;20023;-61
2022/03/23 16:00:08;;;;;;;24.02;8.95;;;;;;;;;;4982986;28;20098;-62
2022/03/23 16:02:38;;;;;;;15.68;6.38;;;;;;;;;;4983831;28;20015;-62
2022/03/23 16:05:05;;;;;;;16.38;6.47;;;;;;;;;;4982739;28;20029;-61
2022/03/23 16:07:31;;;;;;;13.05;5.22;;;;;;;;;;4982879;28;20027;-61
2022/03/23 16:09:58;;;;;;;15.00;7.60;;;;;;;;;;4984115;28;20084;-63
2022/03/23 16:12:24;;;;;;;11.88;6.05;;;;;;;;;;4987858;28;20046;-65
2022/03/23 16:14:50;;;;;;;14.18;6.35;;;;;;;;;;4993628;28;20030;-62
2022/03/23 16:17:16;;;;;;;15.80;6.18;;;;;;;;;;4993640;28;20805;-62
2022/03/23 16:19:43;;;;;;;22.92;9.52;;;;;;;;;;4993211;28;20080;-62
2022/03/23 16:22:09;;;;;;;26.80;11.13;;;;;;;;;;4993257;28;20018;-61
2022/03/23 16:24:35;;;;;;;17.92;8.18;;;;;;;;;;4992870;28;20031;-62
2022/03/23 16:27:02;;;;;;;20.70;9.25;;;;;;;;;;4992904;28;20097;-61
2022/03/23 16:29:28;;;;;;;22.70;8.13;;;;;;;;;;4992930;28;20030;-62
2022/03/23 16:31:54;;;;;;;14.88;5.60;;;;;;;;;;4992879;28;20475;-61
2022/03/23 16:34:21;;;;;;;24.90;10.00;;;;;;;;;;4993135;28;20106;-61
2022/03/23 16:36:54;;;;;;;16.65;6.00;;;;;;;;;;4989977;28;20581;-61
2022/03/23 16:39:21;;;;;;;13.07;6.30;;;;;;;;;;4982627;28;20081;-61
2022/03/23 16:41:48;;;;;;;20.67;8.88;;;;;;;;;;4982081;28;20026;-61
2022/03/23 16:44:15;;;;;;;17.60;9.45;;;;;;;;;;4981843;28;20038;-61
2022/03/23 16:46:42;;;;;;;27.25;13.98;;;;;;;;;;4983074;28;20036;-60
2022/03/23 16:49:09;;;;;;;13.88;6.70;;;;;;;;;;4983126;28;20023;-60
2022/03/23 16:51:36;;;;;;;31.92;16.95;;;;;;;;;;4981310;28;20039;-61
2022/03/23 16:54:02;;;;;;;22.95;13.50;;;;;;;;;;4982148;28;20022;-59
2022/03/23 16:56:32;;;;;;;13.20;6.72;;;;;;;;;;4983255;28;20027;-59
2022/03/23 16:58:59;;;;;;;17.83;9.05;;;;;;;;;;4982089;28;20434;-62
2022/03/23 17:01:25;;;;;;;17.38;8.75;;;;;;;;;;4982012;28;20088;-62
2022/03/23 17:14:51;;;;;;;16.60;7.88;;;;;;;;;;4982203;28;20029;-59
2022/03/23 17:17:18;;;;;;;17.05;7.70;;;;;;;;;;4980961;28;20050;-58
2022/03/23 17:19:44;;;;;;;15.32;7.35;;;;;;;;;;4983098;28;20030;-58
2022/03/23 17:22:11;;;;;;;21.70;8.18;;;;;;;;;;4982034;28;20023;-58
2022/03/23 17:24:41;;;;;;;16.48;8.15;;;;;;;;;;4981085;28;20475;-60
2022/03/23 17:27:08;;;;;;;20.85;9.75;;;;;;;;;;4980741;28;20077;-58
2022/03/23 17:29:35;;;;;;;23.48;8.98;;;;;;;;;;4981523;28;20027;-59
2022/03/23 17:32:03;;;;;;;23.55;10.55;;;;;;;;;;4982514;28;20038;-61
2022/03/23 17:34:30;;;;;;;30.48;13.48;;;;;;;;;;4984979;28;20031;-59
2022/03/23 17:36:56;;;;;;;24.25;12.65;;;;;;;;;;4981833;28;20034;-59
2022/03/23 17:39:22;;;;;;;20.58;11.20;;;;;;;;;;4981297;28;20030;-58
2022/03/23 17:41:49;;;;;;;21.38;11.20;;;;;;;;;;4980300;28;20038;-59
2022/03/23 17:44:20;;;;;;;26.25;13.00;;;;;;;;;;4980686;28;20088;-59
2022/03/23 17:46:49;;;;;;;27.20;13.52;;;;;;;;;;4980515;28;20130;-59
2022/03/23 17:49:16;;;;;;;46.22;21.95;;;;;;;;;;4981027;28;20112;-60
2022/03/23 17:51:43;;;;;;;46.30;19.17;;;;;;;;;;4981231;28;20379;-60
2022/03/23 17:54:09;;;;;;;39.95;18.13;;;;;;;;;;4980631;28;20383;-59
2022/03/23 17:56:36;;;;;;;42.47;18.15;;;;;;;;;;4979812;28;20018;-59
2022/03/23 17:59:02;;;;;;;43.90;20.67;;;;;;;;;;4980789;28;20058;-60
2022/03/23 18:01:28;;;;;;;47.38;22.08;;;;;;;;;;4981893;28;20026;-60
2022/03/23 18:03:59;;;;;;;53.30;22.83;;;;;;;;;;4991129;28;20030;-62
2022/03/23 18:06:26;;;;;;;54.30;26.10;;;;;;;;;;4986475;28;20061;-63
2022/03/23 18:08:52;;;;;;;64.38;28.17;;;;;;;;;;4981359;28;20485;-60
2022/03/23 18:11:18;;;;;;;59.53;26.67;;;;;;;;;;4986930;28;20078;-60
2022/03/23 18:13:44;;;;;;;64.35;28.27;;;;;;;;;;4982414;28;20035;-61
2022/03/23 18:16:10;;;;;;;56.10;26.65;;;;;;;;;;4979853;28;20058;-62
2022/03/23 18:18:36;;;;;;;59.92;27.77;;;;;;;;;;4981519;28;20030;-61
2022/03/23 18:21:03;;;;;;;59.92;31.15;;;;;;;;;;4980787;28;20030;-61
2022/03/23 18:23:29;;;;;;;61.90;30.33;;;;;;;;;;4977046;28;20035;-62
2022/03/23 18:25:56;;;;;;;64.13;30.95;;;;;;;;;;4976601;28;20434;-62
2022/03/23 18:28:23;;;;;;;62.53;30.48;;;;;;;;;;4987341;28;20100;-62
2022/03/23 18:30:50;;;;;;;74.05;34.78;;;;;;;;;;4990476;28;20049;-61
2022/03/23 18:33:23;;;;;;;67.47;33.08;;;;;;;;;;4990818;28;20513;-61
2022/03/23 18:35:50;;;;;;;73.18;35.13;;;;;;;;;;4991256;28;20133;-60
2022/03/23 18:38:16;;;;;;;68.38;33.88;;;;;;;;;;4990778;28;20034;-60
2022/03/23 18:40:42;;;;;;;195.63;88.57;;;;;;;;;;4990769;28;20026;-61
2022/03/23 18:43:09;;;;;;;194.10;87.35;;;;;;;;;;4991268;28;20034;-60
2022/03/23 18:45:36;;;;;;;90.70;43.92;;;;;;;;;;4991122;28;20455;-61
2022/03/23 18:48:02;;;;;;;78.22;36.15;;;;;;;;;;4990575;28;20407;-62
2022/03/23 18:50:29;;;;;;;70.05;34.28;;;;;;;;;;4988823;28;20106;-62
2022/03/23 18:52:55;;;;;;;70.90;34.97;;;;;;;;;;4990840;28;20113;-61
2022/03/23 18:55:23;;;;;;;69.72;35.58;;;;;;;;;;4990938;28;20033;-59
2022/03/23 18:57:54;;;;;;;71.25;32.30;;;;;;;;;;4990528;28;20031;-61
2022/03/23 19:00:20;;;;;;;66.70;30.05;;;;;;;;;;4990592;28;20555;-61
2022/03/23 19:02:49;;;;;;;77.82;30.83;;;;;;;;;;4989180;28;20471;-61
2022/03/23 19:05:16;;;;;;;67.85;30.35;;;;;;;;;;4990055;28;20037;-61
2022/03/23 19:07:42;;;;;;;73.47;29.95;;;;;;;;;;4989957;28;20045;-61
2022/03/23 19:10:09;;;;;;;68.55;32.60;;;;;;;;;;4991531;28;20023;-61
2022/03/23 19:12:35;;;;;;;70.38;30.38;;;;;;;;;;4992984;28;20062;-61
2022/03/23 19:15:01;;;;;;;72.00;31.70;;;;;;;;;;4993832;28;20101;-61
2022/03/23 19:17:27;;;;;;;69.70;31.45;;;;;;;;;;4993557;28;20110;-61
2022/03/23 19:19:54;;;;;;;72.55;31.48;;;;;;;;;;4993786;28;20466;-61
2022/03/23 19:22:20;;;;;;;72.25;33.70;;;;;;;;;;4993967;28;20034;-61
2022/03/23 19:24:47;;;;;;;77.80;35.28;;;;;;;;;;4993759;28;20026;-61
2022/03/23 19:27:15;;;;;;;65.00;35.08;;;;;;;;;;4993518;28;20037;-61
2022/03/23 19:29:41;;;;;;;76.25;36.28;;;;;;;;;;4993961;28;20026;-61
2022/03/23 19:32:08;;;;;;;78.00;35.13;;;;;;;;;;4993491;28;20030;-62
2022/03/23 19:34:35;;;;;;;73.72;36.50;;;;;;;;;;4993506;28;20149;-61
2022/03/23 19:37:01;;;;;;;78.85;38.33;;;;;;;;;;4993716;28;20035;-61
2022/03/23 19:39:27;;;;;;;77.22;35.08;;;;;;;;;;4993305;28;20033;-61
2022/03/23 19:41:53;;;;;;;72.47;35.05;;;;;;;;;;4993487;28;20034;-62
2022/03/23 19:44:20;;;;;;;82.78;37.60;;;;;;;;;;4996422;28;20033;-61
2022/03/23 19:46:46;;;;;;;81.30;37.78;;;;;;;;;;5013059;28;20030;-61
2022/03/23 19:49:12;;;;;;;70.82;37.13;;;;;;;;;;5013236;28;20032;-60
2022/03/23 19:51:38;;;;;;;80.05;37.22;;;;;;;;;;5007756;28;20050;-61
2022/03/23 19:54:04;;;;;;;77.97;35.95;;;;;;;;;;4992706;28;20505;-61
2022/03/23 19:56:30;;;;;;;77.63;35.90;;;;;;;;;;4990624;28;20038;-61
2022/03/23 19:58:56;;;;;;;78.70;38.88;;;;;;;;;;4993119;28;20030;-62
2022/03/23 20:01:22;;;;;;;73.07;36.30;;;;;;;;;;4993027;28;20069;-61
2022/03/23 20:03:49;;;;;;;76.13;35.40;;;;;;;;;;4993335;28;20097;-61
2022/03/23 20:06:15;;;;;;;76.18;35.83;;;;;;;;;;4992607;28;20026;-61
2022/03/23 20:08:42;;;;;;;74.80;34.22;;;;;;;;;;4992707;28;20018;-61
2022/03/23 20:11:10;;;;;;;66.57;34.05;;;;;;;;;;4992899;28;20022;-61
2022/03/23 20:13:37;;;;;;;72.63;32.70;;;;;;;;;;4992867;28;20038;-61
2022/03/23 20:16:04;;;;;;;65.78;34.17;;;;;;;;;;4992736;28;20347;-62
2022/03/23 20:18:30;;;;;;;69.13;34.33;;;;;;;;;;4992139;28;20038;-61
2022/03/23 20:20:56;;;;;;;66.22;32.17;;;;;;;;;;4973342;28;20375;-61
2022/03/23 20:23:22;;;;;;;67.82;33.50;;;;;;;;;;4992658;28;20018;-61
2022/03/23 20:25:49;;;;;;;73.55;34.05;;;;;;;;;;4992447;28;20032;-63
2022/03/23 20:28:15;;;;;;;71.57;35.03;;;;;;;;;;4992521;28;20037;-62
2022/03/23 20:30:56;;;;;;;73.07;33.72;;;;;;;;;;4990767;28;20030;-61
2022/03/23 20:33:50;;;;;;;74.97;33.27;;;;;;;;;;4992560;28;20030;-61
2022/03/23 20:53:44;;;;;;;68.85;34.72;;;;;;;;;;4981931;28;20076;-61
2022/03/23 20:58:55;;;;;;;77.22;35.63;;;;;;;;;;4972853;28;20566;-61
2022/03/23 21:01:25;;;;;;;74.78;34.58;;;;;;;;;;4975762;28;20035;-62
2022/03/23 21:06:49;;;;;;;71.18;33.42;;;;;;;;;;4972354;28;20367;-61
2022/03/23 21:09:38;;;;;;;71.57;33.92;;;;;;;;;;4972436;28;20026;-61
2022/03/23 21:12:22;;;;;;;75.03;35.22;;;;;;;;;;4971949;28;20038;-62
2022/03/23 21:17:34;;;;;;;76.90;35.80;;;;;;;;;;4972845;28;20150;-61
2022/03/23 21:20:19;;;;;;;73.45;35.33;;;;;;;;;;4977363;28;20750;-61
2022/03/23 21:23:02;;;;;;;77.70;36.80;;;;;;;;;;4981888;28;20023;-61
2022/03/23 21:25:29;;;;;;;73.07;34.97;;;;;;;;;;4982007;28;20102;-61
2022/03/23 21:27:55;;;;;;;77.72;35.58;;;;;;;;;;4982992;28;20363;-60
2022/03/23 21:30:22;;;;;;;73.60;35.08;;;;;;;;;;4977592;28;20434;-61